Blue Mountain, Alabama
Current Conditions -  °F | °C
As of 7:53 AM on Thursday 27 Nov 2014 (Local Time) from KANB Reporting Station
Clear Clear  
Wind Chill: 37°   Ceiling: Unl
Heat Index: 43°   Visibility: 10mi
Dew Point: 31°   Wind: 12mph
Humidity: 62%   Direction: 300°WNW
Pressure: 30.3"   Gusts: NA
Location:  33.6853°N, 85.8231°W
Report Text: KANB 271353Z AUTO 30010KT 10SM CLR 06/M01 A3030 RMK AO2 SLP267 T00611006
Loading
Personal Weather Stations






























Interactive Weather Map New forecast layout! Learn more

10-Day Weather Forecast

Advertisements
Track Severe Weather on mobile